Time;durP1;ratioP1;P1;durP2;ratioP2;P2;SDS_P1;SDS_P2;PMS_P1;PMS_P2;Temp;Humidity;BMP_temperature;BMP_pressure;BME280_temperature;BME280_humidity;BME280_pressure;Samples;Min_cycle;Max_cycle;Signal;HPM_P1;HPM_P2
2023/02/13 00:01:43;;;;;;;33.33;19.48;;;1.60;99.90;;;0.61;100.00;102861.16;4195593;28;20025;-78
2023/02/13 00:03:44;;;;;;;30.52;19.50;;;1.60;99.90;;;0.59;100.00;102849.97;4170420;28;20025;-78
2023/02/13 00:05:45;;;;;;;31.88;19.05;;;1.70;99.90;;;0.54;100.00;102850.09;4171686;28;20507;-77
2023/02/13 00:07:46;;;;;;;31.58;18.90;;;1.60;99.90;;;0.57;100.00;102856.97;4182468;28;20082;-78
2023/02/13 00:09:47;;;;;;;29.80;18.35;;;1.60;99.90;;;0.59;100.00;102853.44;4186834;28;20032;-78
2023/02/13 00:11:48;;;;;;;30.42;19.35;;;1.70;99.90;;;0.54;100.00;102845.75;4186743;28;20059;-78
2023/02/13 00:13:49;;;;;;;30.35;19.52;;;1.70;99.90;;;0.64;100.00;102854.16;4186664;28;20025;-78
2023/02/13 00:16:01;;;;;;;38.38;21.40;;;1.70;99.90;;;0.67;100.00;102854.06;4170027;28;20036;-78
2023/02/13 00:18:03;;;;;;;32.22;19.30;;;1.70;99.90;;;0.61;100.00;102843.84;4170815;28;20025;-78
2023/02/13 00:20:05;;;;;;;32.20;19.30;;;1.70;99.90;;;0.58;100.00;102841.31;4171052;28;20030;-78
2023/02/13 00:22:06;;;;;;;30.20;19.85;;;1.70;99.90;;;0.63;100.00;102852.44;4170298;28;20083;-78
2023/02/13 00:24:07;;;;;;;33.15;19.67;;;1.70;99.90;;;0.58;100.00;102849.13;4184027;28;20191;-78
2023/02/13 00:26:13;;;;;;;32.78;18.27;;;1.70;99.90;;;0.58;100.00;102843.94;4170232;28;20022;-78
2023/02/13 00:28:14;;;;;;;30.25;18.38;;;1.60;99.90;;;0.60;100.00;102838.72;4171424;28;20472;-78
2023/02/13 00:30:15;;;;;;;29.83;18.13;;;1.60;99.90;;;0.54;100.00;102837.97;4170080;28;20029;-78
2023/02/13 00:32:16;;;;;;;31.35;19.13;;;1.60;99.90;;;0.52;100.00;102844.09;4170001;28;20094;-78
2023/02/13 00:34:17;;;;;;;32.30;19.60;;;1.60;99.90;;;0.43;100.00;102841.72;4180327;28;20528;-78
2023/02/13 00:36:21;;;;;;;26.80;17.05;;;1.50;99.90;;;0.41;100.00;102838.34;4185056;28;20110;-78
2023/02/13 00:38:22;;;;;;;28.38;18.40;;;1.50;99.90;;;0.40;100.00;102839.22;4170122;28;20105;-78
2023/02/13 00:40:23;;;;;;;31.38;19.63;;;1.50;99.90;;;0.41;100.00;102833.13;4169581;28;20033;-78
2023/02/13 00:42:25;;;;;;;30.60;18.10;;;1.50;99.90;;;0.37;100.00;102824.56;4169679;28;20032;-78
2023/02/13 00:44:26;;;;;;;31.45;18.83;;;1.50;99.90;;;0.35;100.00;102834.16;4169682;28;20120;-78
2023/02/13 00:46:27;;;;;;;31.00;19.48;;;1.40;99.90;;;0.32;100.00;102834.25;4186159;28;20048;-78
2023/02/13 00:48:30;;;;;;;28.30;18.90;;;1.50;99.90;;;0.22;100.00;102832.75;4178322;28;20032;-78
2023/02/13 00:50:31;;;;;;;29.90;18.42;;;1.40;99.90;;;0.26;100.00;102844.78;4168275;28;20025;-78
2023/02/13 00:52:32;;;;;;;31.40;19.25;;;1.40;99.90;;;0.19;100.00;102835.44;4169594;28;20044;-78
2023/02/13 00:54:32;;;;;;;32.42;20.00;;;1.30;99.90;;;0.19;100.00;102832.84;4169654;28;20029;-78
2023/02/13 00:56:33;;;;;;;36.55;20.40;;;1.30;99.90;;;0.23;100.00;102846.59;4186983;28;20033;-78
2023/02/13 00:58:34;;;;;;;33.13;19.80;;;1.30;99.90;;;0.14;100.00;102819.13;4170740;28;20025;-78
2023/02/13 01:00:36;;;;;;;32.10;18.00;;;1.30;99.90;;;0.19;100.00;102837.16;4170245;28;20029;-78
2023/02/13 01:02:37;;;;;;;30.77;18.58;;;1.30;99.90;;;0.14;100.00;102824.31;4185448;28;20021;-78
2023/02/13 01:04:38;;;;;;;29.23;18.30;;;1.20;99.90;;;0.16;100.00;102832.91;4186225;28;20025;-78
2023/02/13 01:06:39;;;;;;;33.42;20.13;;;1.30;99.90;;;0.11;100.00;102834.78;4176706;28;20032;-78
2023/02/13 01:08:41;;;;;;;34.38;19.70;;;1.20;99.90;;;0.00;100.00;102813.44;4170919;28;20029;-78
2023/02/13 01:10:44;;;;;;;29.42;19.27;;;1.20;99.90;;;-0.07;100.00;102798.91;4169394;28;20033;-78
2023/02/13 01:12:45;;;;;;;27.73;17.48;;;1.10;99.90;;;0.00;100.00;102816.03;4169454;28;20563;-78
2023/02/13 01:14:46;;;;;;;28.58;17.20;;;1.10;99.90;;;-0.05;100.00;102823.06;4169288;28;20033;-78
2023/02/13 01:16:47;;;;;;;29.40;18.05;;;1.10;99.90;;;-0.05;100.00;102829.09;4179161;28;20564;-78
2023/02/13 01:18:47;;;;;;;29.23;18.33;;;1.10;99.90;;;-0.21;100.00;102812.19;4171794;28;20053;-77
2023/02/13 01:21:03;;;;;;;28.90;18.08;;;1.00;99.90;;;-0.18;100.00;102819.91;4169208;28;20041;-78
2023/02/13 01:23:04;;;;;;;32.30;18.77;;;1.00;99.90;;;-0.22;100.00;102817.44;4169209;28;20029;-78
2023/02/13 01:25:06;;;;;;;30.83;18.05;;;1.00;99.90;;;-0.19;100.00;102826.00;4168811;28;20042;-78
2023/02/13 01:27:07;;;;;;;28.77;18.50;;;0.90;99.90;;;-0.25;100.00;102810.59;4181972;28;20025;-78
2023/02/13 01:29:12;;;;;;;30.42;16.95;;;0.90;99.90;;;-0.25;100.00;102820.09;4185842;28;20048;-78
2023/02/13 01:31:13;;;;;;;28.00;16.27;;;0.90;99.90;;;-0.27;100.00;102830.50;4184500;28;20057;-78
2023/02/13 01:33:14;;;;;;;29.67;17.50;;;0.90;99.90;;;-0.34;100.00;102821.19;4154982;28;20026;-78
2023/02/13 01:35:15;;;;;;;30.52;18.40;;;0.80;99.90;;;-0.42;100.00;102822.25;4169151;28;20575;-78
2023/02/13 01:37:16;;;;;;;30.77;18.58;;;0.80;99.90;;;-0.36;100.00;102837.66;4175147;28;20029;-78
2023/02/13 01:39:17;;;;;;;32.58;17.80;;;0.70;99.90;;;-0.35;100.00;102842.78;4152573;28;20092;-78
2023/02/13 01:41:18;;;;;;;31.13;18.05;;;0.70;99.90;;;-0.34;100.00;102841.06;4169921;28;20432;-78
2023/02/13 01:43:23;;;;;;;31.48;18.10;;;0.70;99.90;;;-0.37;100.00;102831.63;4170440;28;20033;-78
2023/02/13 01:45:29;;;;;;;27.85;18.50;;;0.70;99.90;;;-0.38;100.00;102822.13;4185158;28;20055;-78
2023/02/13 01:47:47;;;;;;;29.80;18.77;;;0.70;99.90;;;-0.41;100.00;102824.78;4188907;28;20025;-78
2023/02/13 01:49:54;;;;;;;33.22;18.63;;;0.70;99.90;;;-0.48;100.00;102822.38;4156484;28;20030;-78
2023/02/13 01:51:55;;;;;;;30.65;17.67;;;0.70;99.90;;;-0.57;100.00;102829.47;4165748;28;20026;-78
2023/02/13 01:54:09;;;;;;;29.05;16.75;;;0.60;99.90;;;-0.53;100.00;102838.03;4186559;28;20021;-78
2023/02/13 01:56:22;;;;;;;29.42;17.92;;;0.60;99.90;;;-0.65;100.00;102814.97;4180869;28;20112;-77
2023/02/13 01:58:28;;;;;;;27.15;17.58;;;0.50;99.90;;;-0.66;100.00;102827.06;4169032;28;20042;-78
2023/02/13 02:00:29;;;;;;;28.40;16.80;;;0.50;99.90;;;-0.78;100.00;102813.53;4184601;28;20037;-78
2023/02/13 02:02:38;;;;;;;29.15;17.40;;;0.50;99.90;;;-0.74;100.00;102821.22;4165652;28;20124;-77
2023/02/13 02:04:41;;;;;;;31.02;17.33;;;0.40;99.90;;;-0.72;100.00;102829.78;4169102;28;20029;-78
2023/02/13 02:06:52;;;;;;;32.90;19.73;;;0.40;99.90;;;-0.83;100.00;102815.38;4177473;28;20496;-78
2023/02/13 02:08:59;;;;;;;30.15;18.13;;;0.40;99.90;;;-0.91;100.00;102806.91;4171114;28;20044;-78
2023/02/13 02:11:13;;;;;;;33.05;19.30;;;0.30;99.90;;;-0.86;100.00;102816.28;4169601;28;20489;-78
2023/02/13 02:13:19;;;;;;;28.55;17.90;;;0.30;99.90;;;-0.85;100.00;102817.16;4168839;28;20108;-78
2023/02/13 02:15:20;;;;;;;30.08;17.80;;;0.30;99.90;;;-0.76;100.00;102832.50;4168656;28;20061;-78
2023/02/13 02:17:23;;;;;;;32.60;18.35;;;0.30;99.90;;;-0.82;100.00;102830.03;4179757;28;20059;-78
2023/02/13 02:20:02;;;;;;;30.85;19.98;;;0.30;99.90;;;-0.81;100.00;102818.78;4168322;28;20516;-78
2023/02/13 02:22:38;;;;;;;35.53;17.92;;;0.30;99.90;;;-0.80;100.00;102810.97;4181586;28;20116;-77
2023/02/13 02:24:42;;;;;;;30.77;18.17;;;0.30;99.90;;;-0.76;100.00;102816.94;4167206;28;20049;-78
2023/02/13 02:27:35;;;;;;;28.77;17.13;;;0.30;99.90;;;-0.83;100.00;102802.41;4177169;28;20021;-78
2023/02/13 02:30:13;;;;;;;33.88;18.33;;;0.30;99.90;;;-0.82;100.00;102819.66;4160404;28;20176;-78
2023/02/13 02:32:50;;;;;;;29.50;17.83;;;0.30;99.90;;;-0.84;100.00;102809.34;4169540;28;20044;-78
2023/02/13 02:35:16;;;;;;;31.80;19.25;;;0.20;99.90;;;-0.93;100.00;102793.16;4169197;28;20037;-77
2023/02/13 02:37:22;;;;;;;;;;;0.30;99.90;;;-0.88;100.00;102804.25;4174799;28;20022;-78
2023/02/13 02:39:51;;;;;;;28.40;15.85;;;0.20;99.90;;;-0.99;100.00;102788.09;4169206;28;19912;-78
2023/02/13 02:42:00;;;;;;;32.45;16.35;;;0.20;99.90;;;-0.97;100.00;102804.44;4158443;28;20451;-78
2023/02/13 02:44:31;;;;;;;31.27;18.30;;;0.20;99.90;;;-0.99;100.00;102803.63;4184691;28;20078;-78
2023/02/13 02:52:15;;;;;;;39.40;20.23;;;0.10;99.90;;;-0.92;100.00;102808.66;4168053;28;20531;-78
2023/02/13 02:55:05;;;;;;;33.13;17.35;;;0.10;99.90;;;-0.94;100.00;102807.84;4184069;28;20032;-78
2023/02/13 02:57:16;;;;;;;27.70;16.95;;;0.10;99.90;;;-1.08;100.00;102804.69;4178110;28;20029;-77
2023/02/13 03:07:13;;;;;;;31.65;18.20;;;0.00;99.90;;;-1.05;100.00;102811.53;4170519;28;20071;-77
2023/02/13 03:14:18;;;;;;;39.10;18.63;;;0.00;99.90;;;-1.17;100.00;102794.50;4171361;28;20055;-78
2023/02/13 03:24:16;;;;;;;36.78;20.08;;;0.00;99.90;;;-1.24;100.00;102785.16;4174427;28;20463;-77
2023/02/13 03:26:51;;;;;;;33.88;18.67;;;0.00;99.90;;;-1.19;100.00;102797.13;4163512;28;20033;-77
2023/02/13 03:32:09;;;;;;;36.97;18.95;;;-0.10;99.90;;;-1.13;100.00;102802.19;4168787;28;20044;-78
2023/02/13 03:34:16;;;;;;;34.65;18.75;;;0.00;99.90;;;-1.13;100.00;102794.41;4167578;28;20041;-77
2023/02/13 03:38:51;;;;;;;31.48;17.73;;;0.00;99.90;;;-1.18;100.00;102809.19;4177582;28;20048;-78
2023/02/13 03:41:19;;;;;;;34.20;19.20;;;-0.10;99.90;;;-1.27;100.00;102793.84;4167682;28;20029;-78
2023/02/13 03:43:21;;;;;;;30.80;17.60;;;-0.10;99.90;;;-1.28;100.00;102792.13;4185971;28;20017;-78
2023/02/13 03:47:56;;;;;;;29.83;17.52;;;-0.10;99.90;;;-1.27;100.00;102799.03;4168769;28;20032;-78
2023/02/13 03:50:06;;;;;;;31.70;17.40;;;-0.10;99.90;;;-1.31;100.00;102792.19;4167247;28;20063;-78
2023/02/13 03:52:18;;;;;;;30.85;17.13;;;-0.20;99.90;;;-1.33;100.00;102793.09;4167829;28;20091;-77
2023/02/13 03:59:40;;;;;;;33.45;18.67;;;-0.20;99.90;;;-1.35;100.00;102802.66;4173468;28;20028;-78
2023/02/13 04:02:11;;;;;;;32.95;18.63;;;-0.30;99.90;;;-1.35;100.00;102794.88;4176235;28;20029;-77
2023/02/13 04:04:48;;;;;;;32.03;17.70;;;-0.30;99.90;;;-1.34;100.00;102802.59;4165904;28;20052;-78
2023/02/13 04:07:08;;;;;;;35.75;16.52;;;-0.30;99.90;;;-1.35;100.00;102800.91;4175977;28;20017;-77
2023/02/13 04:09:09;;;;;;;24.60;16.08;;;-0.30;99.90;;;-1.39;100.00;102794.09;4166899;28;20037;-78
2023/02/13 04:11:54;;;;;;;29.17;16.73;;;-0.20;99.90;;;-1.37;100.00;102806.97;4167151;28;20021;-78
2023/02/13 04:14:12;;;;;;;29.73;16.88;;;-0.30;99.90;;;-1.39;100.00;102799.25;4183351;28;20029;-78
2023/02/13 04:16:22;;;;;;;30.75;16.77;;;-0.20;99.90;;;-1.36;100.00;102796.63;4184340;28;20490;-77
2023/02/13 04:18:31;;;;;;;32.45;18.08;;;-0.20;99.90;;;-1.31;100.00;102801.69;4167142;28;20083;-78
2023/02/13 04:20:33;;;;;;;33.50;18.63;;;-0.20;99.90;;;-1.24;100.00;102803.28;4183293;28;20029;-77
2023/02/13 04:22:34;;;;;;;31.23;17.55;;;-0.10;99.90;;;-1.28;100.00;102793.84;4183368;28;20534;-77
2023/02/13 04:24:35;;;;;;;31.80;17.45;;;-0.10;99.90;;;-1.20;100.00;102802.34;4167009;28;20460;-78
2023/02/13 04:26:40;;;;;;;33.03;17.70;;;-0.10;99.90;;;-1.29;100.00;102784.41;4167770;28;20104;-78
2023/02/13 04:28:41;;;;;;;49.20;19.67;;;-0.10;99.90;;;-1.25;100.00;102786.03;4171538;28;20091;-77
2023/02/13 04:30:42;;;;;;;40.60;19.30;;;0.00;99.90;;;-1.22;100.00;102797.19;4186498;28;20046;-78
2023/02/13 04:32:43;;;;;;;42.70;20.63;;;0.00;99.90;;;-1.20;100.00;102781.63;4170319;28;20489;-78
2023/02/13 04:34:44;;;;;;;99.63;25.65;;;0.00;99.90;;;-1.16;100.00;102791.88;4171108;28;20037;-78
2023/02/13 04:36:45;;;;;;;78.60;23.83;;;0.10;99.90;;;-1.03;100.00;102799.41;4175249;28;20029;-78
2023/02/13 04:38:46;;;;;;;70.10;26.30;;;0.10;99.90;;;-1.12;100.00;102778.00;4186531;28;20032;-77
2023/02/13 04:40:47;;;;;;;69.90;24.23;;;0.10;99.90;;;-1.05;100.00;102783.91;4178764;28;20122;-78
2023/02/13 04:42:48;;;;;;;98.72;23.77;;;0.10;99.90;;;-1.01;100.00;102782.06;4175091;28;20057;-77
2023/02/13 04:44:49;;;;;;;88.03;25.02;;;0.20;99.90;;;-0.95;100.00;102789.72;4170874;28;20080;-78
2023/02/13 04:46:50;;;;;;;95.25;25.40;;;0.20;99.90;;;-0.88;100.00;102799.06;4172141;28;20025;-78
2023/02/13 04:48:51;;;;;;;70.50;22.15;;;0.20;99.90;;;-1.01;100.00;102780.34;4171117;28;20028;-78
2023/02/13 04:50:51;;;;;;;86.18;24.27;;;0.20;99.90;;;-0.92;100.00;102792.25;4185726;28;20029;-77
2023/02/13 04:52:55;;;;;;;30.63;19.13;;;0.20;99.90;;;-1.03;100.00;102778.69;4170959;28;20030;-78
2023/02/13 04:54:56;;;;;;;74.72;21.52;;;0.20;99.90;;;-0.97;100.00;102788.91;4169779;28;20029;-77
2023/02/13 04:56:57;;;;;;;45.92;19.17;;;0.20;99.90;;;-0.99;100.00;102794.13;4177521;28;20029;-77
2023/02/13 04:58:58;;;;;;;27.27;16.00;;;0.20;99.90;;;-1.11;100.00;102790.03;4175532;28;20037;-77
2023/02/13 05:00:59;;;;;;;31.20;17.83;;;0.10;99.90;;;-1.23;100.00;102773.94;4171839;28;20088;-77
2023/02/13 05:03:09;;;;;;;40.03;20.55;;;0.10;99.90;;;-1.22;100.00;102789.41;4187358;28;20025;-77
2023/02/13 05:05:10;;;;;;;38.08;19.17;;;0.00;99.90;;;-1.32;100.00;102785.31;4186526;28;20025;-78
2023/02/13 05:07:11;;;;;;;35.60;19.67;;;-0.10;99.90;;;-1.45;100.00;102783.84;4176327;28;20033;-78
2023/02/13 05:09:11;;;;;;;42.00;18.60;;;-0.10;99.90;;;-1.41;100.00;102789.81;4168711;28;20018;-78
2023/02/13 05:11:12;;;;;;;37.40;17.35;;;-0.20;99.90;;;-1.46;100.00;102795.06;4170664;28;20022;-78
2023/02/13 05:13:15;;;;;;;27.15;17.15;;;-0.30;99.90;;;-1.43;100.00;102776.03;4169108;28;20026;-78
2023/02/13 05:15:16;;;;;;;36.13;20.13;;;-0.20;99.90;;;-1.35;100.00;102780.22;4169719;28;20029;-78
2023/02/13 05:17:17;;;;;;;32.03;18.52;;;-0.10;99.90;;;-1.35;100.00;102792.28;4167680;28;20028;-78
2023/02/13 05:19:18;;;;;;;35.13;18.58;;;-0.20;99.90;;;-1.42;100.00;102788.09;4187034;28;20032;-78
2023/02/13 05:23:39;;;;;;;29.27;18.05;;;-0.30;99.90;;;-1.57;100.00;102793.56;4186059;28;20450;-78
2023/02/13 05:25:41;;;;;;;31.25;18.48;;;-0.30;99.90;;;-1.61;100.00;102787.59;4185687;28;20050;-78
2023/02/13 05:27:42;;;;;;;27.65;17.10;;;-0.40;99.90;;;-1.64;100.00;102785.06;4171745;28;20060;-78
2023/02/13 05:29:43;;;;;;;27.73;16.38;;;-0.40;99.90;;;-1.62;100.00;102790.22;4169060;28;20037;-77
2023/02/13 05:31:57;;;;;;;29.58;17.55;;;-0.50;99.90;;;-1.71;100.00;102779.19;4169195;28;20136;-78
2023/02/13 05:33:58;;;;;;;28.27;16.45;;;-0.50;99.90;;;-1.74;100.00;102762.84;4169211;28;20108;-78
2023/02/13 05:35:58;;;;;;;29.27;16.95;;;-0.50;99.90;;;-1.61;100.00;102781.59;4168511;28;20036;-77
2023/02/13 05:37:59;;;;;;;29.23;16.77;;;-0.50;99.90;;;-1.67;100.00;102767.88;4173783;28;20033;-78
2023/02/13 05:40:00;;;;;;;30.35;17.02;;;-0.50;99.90;;;-1.61;100.00;102782.41;4168934;28;20108;-78
2023/02/13 05:42:03;;;;;;;28.70;16.40;;;-0.40;99.90;;;-1.63;100.00;102786.78;4185335;28;20469;-78
2023/02/13 05:44:04;;;;;;;29.42;16.73;;;-0.50;99.90;;;-1.65;100.00;102778.22;4169152;28;20041;-78
2023/02/13 05:46:08;;;;;;;29.10;17.08;;;-0.50;99.90;;;-1.70;100.00;102777.41;4169094;28;20056;-78
2023/02/13 05:48:09;;;;;;;28.83;17.35;;;-0.50;99.90;;;-1.66;100.00;102779.06;4170948;28;20029;-78
2023/02/13 05:50:11;;;;;;;25.95;16.02;;;-0.50;99.90;;;-1.67;100.00;102777.34;4168737;28;20038;-78
2023/02/13 05:52:11;;;;;;;30.52;17.30;;;-0.50;99.90;;;-1.69;100.00;102774.81;4168892;28;20029;-78
2023/02/13 05:54:12;;;;;;;31.10;17.85;;;-0.50;99.90;;;-1.63;100.00;102784.19;4170000;28;20510;-78
2023/02/13 05:56:13;;;;;;;30.67;18.27;;;-0.50;99.90;;;-1.63;100.00;102780.75;4170740;28;20029;-78
2023/02/13 05:58:14;;;;;;;35.67;19.55;;;-0.50;99.90;;;-1.64;100.00;102787.66;4177155;28;20036;-78
2023/02/13 06:00:16;;;;;;;37.40;20.25;;;-0.50;99.90;;;-1.66;100.00;102779.06;4168625;28;20033;-78
2023/02/13 06:02:17;;;;;;;38.35;19.15;;;-0.50;99.90;;;-1.64;100.00;102786.81;4164452;28;20021;-78
2023/02/13 06:04:18;;;;;;;40.83;19.58;;;-0.50;99.90;;;-1.59;100.00;102791.03;4186203;28;20029;-78
2023/02/13 06:06:19;;;;;;;37.28;20.13;;;-0.50;99.90;;;-1.66;100.00;102776.50;4183292;28;20578;-78
2023/02/13 06:08:20;;;;;;;37.70;20.20;;;-0.50;99.90;;;-1.59;100.00;102785.00;4152357;28;20036;-78
2023/02/13 06:10:21;;;;;;;46.05;21.63;;;-0.50;99.90;;;-1.62;100.00;102774.72;4168843;28;20159;-78
2023/02/13 06:12:22;;;;;;;42.13;21.75;;;-0.40;99.90;;;-1.56;100.00;102784.94;4169666;28;20105;-78
2023/02/13 06:14:23;;;;;;;45.70;21.67;;;-0.50;99.90;;;-1.61;100.00;102779.00;4168422;28;20029;-78
2023/02/13 06:16:24;;;;;;;48.75;23.80;;;-0.40;99.90;;;-1.55;100.00;102794.41;4170548;28;20084;-78
2023/02/13 06:18:25;;;;;;;39.05;22.02;;;-0.50;99.90;;;-1.62;100.00;102785.91;4175956;28;20021;-78
2023/02/13 06:20:26;;;;;;;47.65;21.25;;;-0.40;99.90;;;-1.57;100.00;102796.16;4168083;28;20085;-78
2023/02/13 06:22:27;;;;;;;53.40;22.70;;;-0.50;99.90;;;-1.61;100.00;102789.34;4169831;28;20119;-78
2023/02/13 06:24:28;;;;;;;44.38;23.08;;;-0.50;99.90;;;-1.62;100.00;102785.91;4168117;28;20049;-78
2023/02/13 06:26:29;;;;;;;44.85;22.13;;;-0.50;99.90;;;-1.67;100.00;102792.06;4171206;28;20022;-78
2023/02/13 06:28:30;;;;;;;42.30;22.23;;;-0.50;99.90;;;-1.75;100.00;102790.44;4170107;28;20021;-77
2023/02/13 06:30:32;;;;;;;41.08;22.58;;;-0.50;99.90;;;-1.72;100.00;102803.34;4167815;28;20036;-78
2023/02/13 06:32:33;;;;;;;42.05;21.58;;;-0.50;99.90;;;-1.78;100.00;102800.84;4169681;28;20033;-77
2023/02/13 06:34:34;;;;;;;44.88;20.75;;;-0.50;99.90;;;-1.74;100.00;102805.09;4168146;28;20528;-78
2023/02/13 06:36:37;;;;;;;52.33;22.00;;;-0.50;99.90;;;-1.72;100.00;102805.91;4170437;28;20064;-77
2023/02/13 06:38:38;;;;;;;37.90;19.55;;;-0.50;99.90;;;-1.70;100.00;102805.88;4169318;28;20029;-78
2023/02/13 06:40:39;;;;;;;38.05;18.63;;;-0.50;99.90;;;-1.70;100.00;102803.28;4167985;28;20030;-78
2023/02/13 06:42:44;;;;;;;35.13;19.27;;;-0.50;99.90;;;-1.74;100.00;102799.06;4167997;28;20021;-78
2023/02/13 06:44:45;;;;;;;42.55;19.48;;;-0.50;99.90;;;-1.80;100.00;102791.41;4167483;28;20038;-78
2023/02/13 06:46:46;;;;;;;41.05;20.42;;;-0.50;99.90;;;-1.73;100.00;102805.94;4172628;28;20028;-78
2023/02/13 06:48:47;;;;;;;40.75;20.83;;;-0.50;99.90;;;-1.67;100.00;102819.63;4175868;28;20034;-77
2023/02/13 06:50:50;;;;;;;49.72;21.73;;;-0.50;99.90;;;-1.66;100.00;102817.88;4163051;28;20489;-78
2023/02/13 06:52:51;;;;;;;42.80;20.23;;;-0.50;99.90;;;-1.67;100.00;102822.19;4169151;28;20497;-78
2023/02/13 06:54:52;;;;;;;45.70;21.48;;;-0.50;99.90;;;-1.73;100.00;102806.78;4169183;28;20279;-78
2023/02/13 06:56:53;;;;;;;50.97;21.95;;;-0.40;99.90;;;-1.60;100.00;102825.53;4172164;28;20116;-78
2023/02/13 06:58:54;;;;;;;45.13;22.25;;;-0.40;99.90;;;-1.72;100.00;102799.88;4169004;28;20497;-78
2023/02/13 07:00:55;;;;;;;43.35;21.20;;;-0.40;99.90;;;-1.59;100.00;102826.41;4184793;28;20032;-78
2023/02/13 07:03:03;;;;;;;40.72;20.10;;;-0.40;99.90;;;-1.62;100.00;102816.09;4185638;28;20114;-78
2023/02/13 07:05:04;;;;;;;44.47;21.85;;;-0.40;99.90;;;-1.78;100.00;102808.63;4184444;28;20025;-78
2023/02/13 07:07:05;;;;;;;55.63;23.45;;;-0.40;99.90;;;-1.71;100.00;102815.41;4172630;28;20022;-78
2023/02/13 07:09:06;;;;;;;45.47;21.67;;;-0.50;99.90;;;-1.75;100.00;102821.50;4151141;28;20028;-78
2023/02/13 07:11:07;;;;;;;43.85;20.85;;;-0.50;99.90;;;-1.76;100.00;102824.09;4167765;28;20029;-78
2023/02/13 07:13:09;;;;;;;54.85;22.65;;;-0.50;99.90;;;-1.80;100.00;102817.28;4151562;28;20018;-78
2023/02/13 07:15:10;;;;;;;54.55;23.27;;;-0.50;99.90;;;-1.72;100.00;102826.63;4170047;28;20079;-78
2023/02/13 07:17:11;;;;;;;44.20;20.90;;;-0.50;99.90;;;-1.77;100.00;102814.66;4167622;28;20030;-78
2023/02/13 07:19:12;;;;;;;40.22;19.80;;;-0.50;99.90;;;-1.66;100.00;102828.22;4167874;28;20136;-78
2023/02/13 07:21:13;;;;;;;38.42;21.58;;;-0.50;99.90;;;-1.76;100.00;102816.34;4168946;28;20052;-78
2023/02/13 07:23:14;;;;;;;40.33;20.42;;;-0.50;99.90;;;-1.67;100.00;102826.53;4167501;28;20113;-78
2023/02/13 07:25:16;;;;;;;42.17;22.17;;;-0.50;99.90;;;-1.66;100.00;102836.00;4150745;28;20042;-78
2023/02/13 07:27:17;;;;;;;42.03;21.98;;;-0.40;99.90;;;-1.60;100.00;102828.13;4183899;28;20029;-79
2023/02/13 07:29:18;;;;;;;38.50;20.60;;;-0.40;99.90;;;-1.54;100.00;102843.53;4178245;28;20029;-79
2023/02/13 07:31:19;;;;;;;35.92;20.67;;;-0.40;99.90;;;-1.53;100.00;102837.50;4167817;28;20028;-79
2023/02/13 07:33:20;;;;;;;48.17;22.50;;;-0.30;99.90;;;-1.49;100.00;102844.31;4197415;28;20025;-79
2023/02/13 07:35:21;;;;;;;46.80;23.73;;;-0.30;99.90;;;-1.47;100.00;102837.38;4183932;28;20029;-79
2023/02/13 07:37:22;;;;;;;36.75;21.50;;;-0.30;99.90;;;-1.47;100.00;102836.53;4169069;28;20022;-79
2023/02/13 07:39:23;;;;;;;46.20;22.02;;;-0.20;99.90;;;-1.45;100.00;102837.34;4168740;28;20030;-79
2023/02/13 07:41:25;;;;;;;46.45;21.13;;;-0.20;99.90;;;-1.39;100.00;102845.84;4167498;28;20091;-79
2023/02/13 07:43:28;;;;;;;53.67;22.42;;;-0.20;99.90;;;-1.41;100.00;102841.59;4167413;28;20120;-79
2023/02/13 07:45:29;;;;;;;54.05;23.55;;;-0.20;99.90;;;-1.36;100.00;102845.78;4150909;28;20038;-79
2023/02/13 07:47:31;;;;;;;51.45;23.65;;;-0.20;99.90;;;-1.42;100.00;102845.06;4167307;28;20029;-78
2023/02/13 07:49:33;;;;;;;37.92;20.92;;;-0.20;99.90;;;-1.42;100.00;102840.72;4171160;28;20025;-79
2023/02/13 07:51:34;;;;;;;35.20;20.48;;;-0.10;99.90;;;-1.41;100.00;102846.78;4168660;28;20025;-79
2023/02/13 07:53:35;;;;;;;39.25;20.13;;;-0.10;99.90;;;-1.26;100.00;102867.19;4167256;28;20562;-78
2023/02/13 07:55:37;;;;;;;41.22;21.60;;;-0.10;99.90;;;-1.32;100.00;102847.44;4183873;28;20033;-78
2023/02/13 07:57:37;;;;;;;41.53;22.70;;;-0.10;99.90;;;-1.19;100.00;102864.44;4167443;28;20057;-79
2023/02/13 07:59:39;;;;;;;48.55;23.55;;;0.00;99.90;;;-1.25;100.00;102851.63;4169870;28;20022;-79
2023/02/13 08:01:40;;;;;;;44.20;21.70;;;0.00;99.90;;;-1.23;100.00;102857.63;4160842;28;20022;-79
2023/02/13 08:03:41;;;;;;;45.78;21.15;;;0.00;99.90;;;-1.10;100.00;102876.34;4188189;28;20037;-79
2023/02/13 08:05:42;;;;;;;54.20;23.50;;;0.00;99.90;;;-1.12;100.00;102863.44;4184209;28;20017;-79
2023/02/13 08:07:43;;;;;;;55.00;22.98;;;0.10;99.90;;;-0.92;100.00;102875.13;4171772;28;20117;-77
2023/02/13 08:12:12;;;;;;;39.38;21.33;;;0.30;99.90;;;-0.92;100.00;102857.00;4152343;28;20049;-78
2023/02/13 08:14:12;;;;;;;49.67;23.08;;;0.30;99.90;;;-0.78;100.00;102880.91;4153500;28;20057;-78
2023/02/13 08:16:13;;;;;;;40.30;20.45;;;0.40;99.90;;;-0.83;100.00;102855.09;4180737;28;20040;-78
2023/02/13 08:18:14;;;;;;;44.92;21.92;;;0.40;99.90;;;-0.68;100.00;102866.84;4178293;28;20488;-78
2023/02/13 08:20:15;;;;;;;41.88;23.02;;;0.50;99.90;;;-0.70;100.00;102859.13;4170209;28;20088;-78
2023/02/13 08:22:16;;;;;;;44.03;21.65;;;0.50;99.90;;;-0.61;100.00;102858.94;4171311;28;20029;-78
2023/02/13 08:24:17;;;;;;;51.97;24.63;;;0.50;99.90;;;-0.60;100.00;102872.75;4170155;28;20045;-78
2023/02/13 08:26:18;;;;;;;52.40;24.58;;;0.60;99.90;;;-0.61;100.00;102858.09;4164338;28;20575;-78
2023/02/13 08:28:19;;;;;;;58.15;23.75;;;0.60;99.90;;;-0.50;100.00;102874.25;4157827;28;20033;-78
2023/02/13 08:30:20;;;;;;;41.42;23.92;;;0.60;99.90;;;-0.37;100.00;102875.69;4185843;28;20043;-78
2023/02/13 08:32:22;;;;;;;73.15;26.42;;;0.70;99.90;;;-0.40;100.00;102867.13;4180039;28;20424;-78
2023/02/13 08:34:23;;;;;;;37.95;21.27;;;0.80;99.90;;;-0.30;100.00;102877.25;4187789;28;20442;-78
2023/02/13 08:36:24;;;;;;;45.50;22.35;;;0.80;99.90;;;-0.33;100.00;102866.94;4180874;28;20038;-78
2023/02/13 08:38:25;;;;;;;42.45;21.10;;;0.90;99.90;;;-0.23;100.00;102880.56;4170013;28;20140;-78
2023/02/13 08:40:26;;;;;;;44.15;23.05;;;0.90;99.90;;;-0.19;100.00;102872.69;4169976;28;20041;-78
2023/02/13 08:42:27;;;;;;;41.90;21.55;;;0.90;99.90;;;-0.22;100.00;102871.91;4171084;28;20052;-78
2023/02/13 08:44:28;;;;;;;51.08;21.10;;;0.90;99.90;;;-0.19;100.00;102874.41;4186712;28;20581;-78
2023/02/13 08:46:29;;;;;;;36.85;20.35;;;0.90;99.90;;;-0.19;100.00;102866.63;4167962;28;20022;-78
2023/02/13 08:48:30;;;;;;;32.95;18.30;;;1.00;99.90;;;-0.24;100.00;102850.34;4186373;28;20040;-78
2023/02/13 08:50:31;;;;;;;28.30;18.30;;;1.00;99.90;;;-0.20;100.00;102858.00;4169981;28;20033;-78
2023/02/13 08:52:31;;;;;;;26.02;16.83;;;1.00;99.90;;;-0.20;100.00;102857.16;4187661;28;20079;-78
2023/02/13 08:54:34;;;;;;;28.38;17.80;;;1.00;99.90;;;-0.18;100.00;102852.78;4187345;28;20044;-78
2023/02/13 08:56:35;;;;;;;46.08;19.75;;;1.00;99.90;;;-0.17;100.00;102857.94;4180368;28;20488;-78
2023/02/13 08:58:37;;;;;;;30.02;19.42;;;1.00;99.90;;;-0.12;100.00;102861.25;4169820;28;20037;-78
2023/02/13 09:00:37;;;;;;;28.60;18.73;;;1.10;99.90;;;-0.02;100.00;102870.53;4170822;28;20026;-78
2023/02/13 09:02:38;;;;;;;25.25;16.98;;;1.10;99.90;;;-0.07;100.00;102855.97;4185545;28;20021;-78
2023/02/13 09:04:39;;;;;;;30.80;18.30;;;1.10;99.90;;;0.05;100.00;102863.47;4186024;28;20041;-78
2023/02/13 09:06:41;;;;;;;29.65;17.77;;;1.20;99.90;;;0.05;100.00;102857.41;4178678;28;20025;-78
2023/02/13 09:08:42;;;;;;;36.08;20.23;;;1.20;99.90;;;0.06;100.00;102861.72;4170884;28;20112;-78
2023/02/13 09:10:43;;;;;;;33.53;20.40;;;1.20;99.90;;;0.14;100.00;102880.56;4184807;28;20053;-78